sensor_id;sensor_type;location;lat;lon;timestamp;P1;durP1;ratioP1;P2;durP2;ratioP2
67805;SDS011;54603;45.638;11.714;2024-02-26T00:00:38;3.60;;;2.40;;
67805;SDS011;54603;45.638;11.714;2024-02-26T00:03:04;3.40;;;2.50;;
67805;SDS011;54603;45.638;11.714;2024-02-26T00:05:30;3.60;;;2.40;;
67805;SDS011;54603;45.638;11.714;2024-02-26T00:07:56;2.80;;;2.50;;
67805;SDS011;54603;45.638;11.714;2024-02-26T00:10:22;2.80;;;2.40;;
67805;SDS011;54603;45.638;11.714;2024-02-26T00:12:49;2.80;;;2.40;;
67805;SDS011;54603;45.638;11.714;2024-02-26T00:15:15;2.90;;;2.40;;
67805;SDS011;54603;45.638;11.714;2024-02-26T00:17:41;3.20;;;2.00;;
67805;SDS011;54603;45.638;11.714;2024-02-26T00:20:07;3.80;;;2.60;;
67805;SDS011;54603;45.638;11.714;2024-02-26T00:22:36;2.70;;;2.30;;
67805;SDS011;54603;45.638;11.714;2024-02-26T00:25:03;3.40;;;2.60;;
67805;SDS011;54603;45.638;11.714;2024-02-26T00:27:30;3.20;;;2.40;;
67805;SDS011;54603;45.638;11.714;2024-02-26T00:29:55;2.90;;;2.30;;
67805;SDS011;54603;45.638;11.714;2024-02-26T00:32:21;3.10;;;2.40;;
67805;SDS011;54603;45.638;11.714;2024-02-26T00:34:47;2.90;;;2.30;;
67805;SDS011;54603;45.638;11.714;2024-02-26T00:37:13;2.70;;;2.50;;
67805;SDS011;54603;45.638;11.714;2024-02-26T00:39:38;3.40;;;2.60;;
67805;SDS011;54603;45.638;11.714;2024-02-26T00:42:04;3.50;;;2.30;;
67805;SDS011;54603;45.638;11.714;2024-02-26T00:44:30;2.70;;;2.40;;
67805;SDS011;54603;45.638;11.714;2024-02-26T00:46:57;2.80;;;2.40;;
67805;SDS011;54603;45.638;11.714;2024-02-26T00:49:23;3.40;;;2.40;;
67805;SDS011;54603;45.638;11.714;2024-02-26T00:51:49;3.00;;;2.40;;
67805;SDS011;54603;45.638;11.714;2024-02-26T00:54:15;3.60;;;2.50;;
67805;SDS011;54603;45.638;11.714;2024-02-26T00:56:41;3.50;;;2.70;;
67805;SDS011;54603;45.638;11.714;2024-02-26T00:59:07;3.90;;;2.60;;
67805;SDS011;54603;45.638;11.714;2024-02-26T01:01:34;2.50;;;2.30;;
67805;SDS011;54603;45.638;11.714;2024-02-26T01:04:00;2.50;;;2.30;;
67805;SDS011;54603;45.638;11.714;2024-02-26T01:06:27;3.50;;;2.90;;
67805;SDS011;54603;45.638;11.714;2024-02-26T01:08:53;3.00;;;2.50;;
67805;SDS011;54603;45.638;11.714;2024-02-26T01:11:20;3.50;;;2.40;;
67805;SDS011;54603;45.638;11.714;2024-02-26T01:13:45;3.60;;;2.70;;
67805;SDS011;54603;45.638;11.714;2024-02-26T01:16:11;3.70;;;2.50;;
67805;SDS011;54603;45.638;11.714;2024-02-26T01:18:37;3.70;;;2.70;;
67805;SDS011;54603;45.638;11.714;2024-02-26T01:21:05;3.50;;;2.70;;
67805;SDS011;54603;45.638;11.714;2024-02-26T01:23:34;4.70;;;2.80;;
67805;SDS011;54603;45.638;11.714;2024-02-26T01:26:01;3.20;;;2.50;;
67805;SDS011;54603;45.638;11.714;2024-02-26T01:28:28;3.30;;;2.60;;
67805;SDS011;54603;45.638;11.714;2024-02-26T01:30:54;2.90;;;2.50;;
67805;SDS011;54603;45.638;11.714;2024-02-26T01:33:20;3.30;;;2.80;;
67805;SDS011;54603;45.638;11.714;2024-02-26T01:35:46;3.60;;;2.70;;
67805;SDS011;54603;45.638;11.714;2024-02-26T01:38:12;3.40;;;2.40;;
67805;SDS011;54603;45.638;11.714;2024-02-26T01:40:39;3.90;;;2.50;;
67805;SDS011;54603;45.638;11.714;2024-02-26T01:43:05;3.10;;;2.70;;
67805;SDS011;54603;45.638;11.714;2024-02-26T01:45:31;4.20;;;2.60;;
67805;SDS011;54603;45.638;11.714;2024-02-26T01:47:57;3.20;;;2.70;;
67805;SDS011;54603;45.638;11.714;2024-02-26T01:50:23;3.00;;;2.70;;
67805;SDS011;54603;45.638;11.714;2024-02-26T01:52:50;3.10;;;2.60;;
67805;SDS011;54603;45.638;11.714;2024-02-26T01:55:22;3.00;;;2.70;;
67805;SDS011;54603;45.638;11.714;2024-02-26T01:57:51;2.90;;;2.60;;
67805;SDS011;54603;45.638;11.714;2024-02-26T02:00:18;2.80;;;2.60;;
67805;SDS011;54603;45.638;11.714;2024-02-26T02:02:45;3.60;;;2.60;;
67805;SDS011;54603;45.638;11.714;2024-02-26T02:05:15;2.80;;;2.40;;
67805;SDS011;54603;45.638;11.714;2024-02-26T02:07:44;3.20;;;2.70;;
67805;SDS011;54603;45.638;11.714;2024-02-26T02:10:13;3.40;;;2.70;;
67805;SDS011;54603;45.638;11.714;2024-02-26T02:12:43;2.90;;;2.60;;
67805;SDS011;54603;45.638;11.714;2024-02-26T02:15:09;3.50;;;2.60;;
67805;SDS011;54603;45.638;11.714;2024-02-26T02:17:35;4.00;;;2.80;;
67805;SDS011;54603;45.638;11.714;2024-02-26T02:20:02;3.20;;;2.60;;
67805;SDS011;54603;45.638;11.714;2024-02-26T02:22:29;2.90;;;2.60;;
67805;SDS011;54603;45.638;11.714;2024-02-26T02:24:57;3.20;;;2.50;;
67805;SDS011;54603;45.638;11.714;2024-02-26T02:27:23;3.10;;;2.40;;
67805;SDS011;54603;45.638;11.714;2024-02-26T02:29:49;2.90;;;2.60;;
67805;SDS011;54603;45.638;11.714;2024-02-26T02:32:16;3.20;;;2.80;;
67805;SDS011;54603;45.638;11.714;2024-02-26T02:34:42;2.70;;;2.50;;
67805;SDS011;54603;45.638;11.714;2024-02-26T02:37:08;2.90;;;2.60;;
67805;SDS011;54603;45.638;11.714;2024-02-26T02:39:34;3.10;;;2.50;;
67805;SDS011;54603;45.638;11.714;2024-02-26T02:42:00;3.50;;;2.90;;
67805;SDS011;54603;45.638;11.714;2024-02-26T02:44:26;2.80;;;2.40;;
67805;SDS011;54603;45.638;11.714;2024-02-26T02:46:51;3.30;;;2.60;;
67805;SDS011;54603;45.638;11.714;2024-02-26T02:49:18;2.60;;;2.40;;
67805;SDS011;54603;45.638;11.714;2024-02-26T02:51:44;3.70;;;2.70;;
67805;SDS011;54603;45.638;11.714;2024-02-26T02:54:10;2.90;;;2.60;;
67805;SDS011;54603;45.638;11.714;2024-02-26T02:56:36;2.50;;;2.30;;
67805;SDS011;54603;45.638;11.714;2024-02-26T02:59:02;3.70;;;2.70;;
67805;SDS011;54603;45.638;11.714;2024-02-26T03:01:28;3.30;;;2.70;;
67805;SDS011;54603;45.638;11.714;2024-02-26T03:03:54;3.20;;;2.30;;
67805;SDS011;54603;45.638;11.714;2024-02-26T03:06:19;2.40;;;2.20;;
67805;SDS011;54603;45.638;11.714;2024-02-26T03:08:46;3.40;;;2.80;;
67805;SDS011;54603;45.638;11.714;2024-02-26T03:11:15;3.20;;;2.40;;
67805;SDS011;54603;45.638;11.714;2024-02-26T03:13:41;3.00;;;2.40;;
67805;SDS011;54603;45.638;11.714;2024-02-26T03:16:07;3.40;;;2.40;;
67805;SDS011;54603;45.638;11.714;2024-02-26T03:18:33;2.60;;;2.20;;
67805;SDS011;54603;45.638;11.714;2024-02-26T03:20:59;2.90;;;2.60;;
67805;SDS011;54603;45.638;11.714;2024-02-26T03:23:25;2.90;;;2.60;;
67805;SDS011;54603;45.638;11.714;2024-02-26T03:25:51;3.50;;;2.50;;
67805;SDS011;54603;45.638;11.714;2024-02-26T03:28:17;2.90;;;2.60;;
67805;SDS011;54603;45.638;11.714;2024-02-26T03:30:43;2.70;;;2.50;;
67805;SDS011;54603;45.638;11.714;2024-02-26T03:33:09;4.30;;;2.50;;
67805;SDS011;54603;45.638;11.714;2024-02-26T03:35:35;4.30;;;2.90;;
67805;SDS011;54603;45.638;11.714;2024-02-26T03:38:01;2.60;;;2.40;;
67805;SDS011;54603;45.638;11.714;2024-02-26T03:40:28;3.00;;;2.70;;
67805;SDS011;54603;45.638;11.714;2024-02-26T03:42:53;2.90;;;2.60;;
67805;SDS011;54603;45.638;11.714;2024-02-26T03:45:19;2.80;;;2.50;;
67805;SDS011;54603;45.638;11.714;2024-02-26T03:47:45;3.80;;;2.60;;
67805;SDS011;54603;45.638;11.714;2024-02-26T03:50:11;3.70;;;2.40;;
67805;SDS011;54603;45.638;11.714;2024-02-26T03:52:36;3.30;;;2.60;;
67805;SDS011;54603;45.638;11.714;2024-02-26T03:55:02;2.80;;;2.40;;
67805;SDS011;54603;45.638;11.714;2024-02-26T03:57:28;3.50;;;2.40;;
67805;SDS011;54603;45.638;11.714;2024-02-26T03:59:54;3.80;;;2.50;;
67805;SDS011;54603;45.638;11.714;2024-02-26T04:02:20;3.60;;;2.40;;
67805;SDS011;54603;45.638;11.714;2024-02-26T04:04:46;2.30;;;2.10;;
67805;SDS011;54603;45.638;11.714;2024-02-26T04:07:13;2.50;;;2.30;;
67805;SDS011;54603;45.638;11.714;2024-02-26T04:09:38;2.70;;;2.30;;
67805;SDS011;54603;45.638;11.714;2024-02-26T04:12:04;3.60;;;2.70;;
67805;SDS011;54603;45.638;11.714;2024-02-26T04:14:31;2.80;;;2.30;;
67805;SDS011;54603;45.638;11.714;2024-02-26T04:16:56;2.80;;;2.50;;
67805;SDS011;54603;45.638;11.714;2024-02-26T04:19:22;2.60;;;2.30;;
67805;SDS011;54603;45.638;11.714;2024-02-26T04:21:48;2.60;;;2.30;;
67805;SDS011;54603;45.638;11.714;2024-02-26T04:24:14;3.80;;;2.30;;
67805;SDS011;54603;45.638;11.714;2024-02-26T04:26:40;2.90;;;2.40;;
67805;SDS011;54603;45.638;11.714;2024-02-26T04:29:05;2.60;;;2.20;;
67805;SDS011;54603;45.638;11.714;2024-02-26T04:31:31;2.50;;;2.30;;
67805;SDS011;54603;45.638;11.714;2024-02-26T04:33:58;2.80;;;2.40;;
67805;SDS011;54603;45.638;11.714;2024-02-26T04:36:24;2.40;;;2.20;;
67805;SDS011;54603;45.638;11.714;2024-02-26T04:38:51;2.70;;;2.40;;
67805;SDS011;54603;45.638;11.714;2024-02-26T04:41:19;2.70;;;2.30;;
67805;SDS011;54603;45.638;11.714;2024-02-26T04:43:45;2.90;;;2.30;;
67805;SDS011;54603;45.638;11.714;2024-02-26T04:46:11;3.00;;;2.30;;
67805;SDS011;54603;45.638;11.714;2024-02-26T04:48:37;2.70;;;2.40;;
67805;SDS011;54603;45.638;11.714;2024-02-26T04:51:04;2.70;;;2.30;;
67805;SDS011;54603;45.638;11.714;2024-02-26T04:53:30;3.00;;;2.20;;
67805;SDS011;54603;45.638;11.714;2024-02-26T04:55:56;3.00;;;2.60;;
67805;SDS011;54603;45.638;11.714;2024-02-26T04:58:22;2.30;;;2.10;;
67805;SDS011;54603;45.638;11.714;2024-02-26T05:00:48;2.70;;;2.30;;
67805;SDS011;54603;45.638;11.714;2024-02-26T05:03:15;3.30;;;2.50;;
67805;SDS011;54603;45.638;11.714;2024-02-26T05:05:44;2.60;;;2.40;;
67805;SDS011;54603;45.638;11.714;2024-02-26T05:08:10;3.00;;;2.30;;
67805;SDS011;54603;45.638;11.714;2024-02-26T05:10:37;2.60;;;2.30;;
67805;SDS011;54603;45.638;11.714;2024-02-26T05:13:06;3.10;;;2.30;;
67805;SDS011;54603;45.638;11.714;2024-02-26T05:15:32;2.60;;;2.40;;
67805;SDS011;54603;45.638;11.714;2024-02-26T05:17:58;2.40;;;2.10;;
67805;SDS011;54603;45.638;11.714;2024-02-26T05:20:24;2.60;;;2.40;;
67805;SDS011;54603;45.638;11.714;2024-02-26T05:22:50;3.10;;;2.30;;
67805;SDS011;54603;45.638;11.714;2024-02-26T05:25:17;2.50;;;2.30;;
67805;SDS011;54603;45.638;11.714;2024-02-26T05:27:43;2.70;;;2.30;;
67805;SDS011;54603;45.638;11.714;2024-02-26T05:30:11;2.30;;;2.10;;
67805;SDS011;54603;45.638;11.714;2024-02-26T05:32:37;4.50;;;2.60;;
67805;SDS011;54603;45.638;11.714;2024-02-26T05:35:03;2.40;;;2.20;;
67805;SDS011;54603;45.638;11.714;2024-02-26T05:37:30;2.60;;;2.20;;
67805;SDS011;54603;45.638;11.714;2024-02-26T05:39:55;2.40;;;2.20;;
67805;SDS011;54603;45.638;11.714;2024-02-26T05:42:21;2.50;;;2.20;;
67805;SDS011;54603;45.638;11.714;2024-02-26T05:44:47;2.50;;;2.20;;
67805;SDS011;54603;45.638;11.714;2024-02-26T05:47:13;2.60;;;2.40;;
67805;SDS011;54603;45.638;11.714;2024-02-26T05:49:39;2.60;;;2.20;;
67805;SDS011;54603;45.638;11.714;2024-02-26T05:52:06;2.80;;;2.30;;
67805;SDS011;54603;45.638;11.714;2024-02-26T05:54:32;3.20;;;2.60;;
67805;SDS011;54603;45.638;11.714;2024-02-26T05:56:58;2.60;;;2.30;;
67805;SDS011;54603;45.638;11.714;2024-02-26T05:59:23;3.10;;;2.40;;
67805;SDS011;54603;45.638;11.714;2024-02-26T06:01:49;2.60;;;2.40;;
67805;SDS011;54603;45.638;11.714;2024-02-26T06:04:15;2.80;;;2.30;;
67805;SDS011;54603;45.638;11.714;2024-02-26T06:06:44;2.90;;;2.60;;
67805;SDS011;54603;45.638;11.714;2024-02-26T06:09:11;3.90;;;3.20;;
67805;SDS011;54603;45.638;11.714;2024-02-26T06:11:37;3.10;;;2.60;;
67805;SDS011;54603;45.638;11.714;2024-02-26T06:14:04;2.70;;;2.50;;
67805;SDS011;54603;45.638;11.714;2024-02-26T06:16:30;2.60;;;2.20;;
67805;SDS011;54603;45.638;11.714;2024-02-26T06:18:56;2.40;;;2.10;;
67805;SDS011;54603;45.638;11.714;2024-02-26T06:21:22;2.50;;;2.20;;
67805;SDS011;54603;45.638;11.714;2024-02-26T06:23:48;2.70;;;2.30;;
67805;SDS011;54603;45.638;11.714;2024-02-26T06:26:14;2.30;;;2.10;;
67805;SDS011;54603;45.638;11.714;2024-02-26T06:28:40;2.90;;;2.40;;
67805;SDS011;54603;45.638;11.714;2024-02-26T06:31:06;2.80;;;2.20;;
67805;SDS011;54603;45.638;11.714;2024-02-26T06:33:32;2.60;;;2.40;;
67805;SDS011;54603;45.638;11.714;2024-02-26T06:35:58;2.20;;;2.00;;
67805;SDS011;54603;45.638;11.714;2024-02-26T06:38:24;2.40;;;2.20;;
67805;SDS011;54603;45.638;11.714;2024-02-26T06:40:50;2.30;;;2.10;;
67805;SDS011;54603;45.638;11.714;2024-02-26T06:43:16;2.30;;;2.10;;
67805;SDS011;54603;45.638;11.714;2024-02-26T06:45:42;2.60;;;2.30;;
67805;SDS011;54603;45.638;11.714;2024-02-26T06:48:07;2.60;;;2.30;;
67805;SDS011;54603;45.638;11.714;2024-02-26T06:50:33;2.90;;;2.60;;
67805;SDS011;54603;45.638;11.714;2024-02-26T06:52:59;2.20;;;2.00;;
67805;SDS011;54603;45.638;11.714;2024-02-26T06:55:25;2.30;;;2.10;;
67805;SDS011;54603;45.638;11.714;2024-02-26T06:57:50;2.60;;;2.40;;
67805;SDS011;54603;45.638;11.714;2024-02-26T07:00:16;2.50;;;2.10;;
67805;SDS011;54603;45.638;11.714;2024-02-26T07:02:43;2.60;;;2.40;;
67805;SDS011;54603;45.638;11.714;2024-02-26T07:05:09;2.40;;;2.20;;
67805;SDS011;54603;45.638;11.714;2024-02-26T07:07:35;2.60;;;2.20;;
67805;SDS011;54603;45.638;11.714;2024-02-26T07:10:01;4.50;;;2.30;;
67805;SDS011;54603;45.638;11.714;2024-02-26T07:12:32;3.60;;;2.40;;
67805;SDS011;54603;45.638;11.714;2024-02-26T07:14:57;3.30;;;2.40;;
67805;SDS011;54603;45.638;11.714;2024-02-26T07:17:24;2.40;;;2.20;;
67805;SDS011;54603;45.638;11.714;2024-02-26T07:19:49;2.40;;;2.20;;
67805;SDS011;54603;45.638;11.714;2024-02-26T07:22:15;2.90;;;2.20;;
67805;SDS011;54603;45.638;11.714;2024-02-26T07:24:41;3.30;;;2.10;;
67805;SDS011;54603;45.638;11.714;2024-02-26T07:27:07;3.70;;;2.00;;
67805;SDS011;54603;45.638;11.714;2024-02-26T07:29:33;3.10;;;2.20;;
67805;SDS011;54603;45.638;11.714;2024-02-26T07:31:58;2.70;;;2.10;;
67805;SDS011;54603;45.638;11.714;2024-02-26T07:34:24;2.30;;;2.10;;
67805;SDS011;54603;45.638;11.714;2024-02-26T07:36:55;2.70;;;2.00;;
67805;SDS011;54603;45.638;11.714;2024-02-26T07:39:22;2.30;;;2.10;;
67805;SDS011;54603;45.638;11.714;2024-02-26T07:41:48;2.50;;;2.30;;
67805;SDS011;54603;45.638;11.714;2024-02-26T07:44:17;2.80;;;2.20;;
67805;SDS011;54603;45.638;11.714;2024-02-26T07:46:43;3.40;;;2.30;;
67805;SDS011;54603;45.638;11.714;2024-02-26T07:49:12;3.20;;;2.10;;
67805;SDS011;54603;45.638;11.714;2024-02-26T07:51:40;5.20;;;2.30;;
67805;SDS011;54603;45.638;11.714;2024-02-26T07:54:09;3.20;;;2.20;;
67805;SDS011;54603;45.638;11.714;2024-02-26T07:56:34;3.90;;;2.00;;
67805;SDS011;54603;45.638;11.714;2024-02-26T07:59:01;3.80;;;2.30;;
67805;SDS011;54603;45.638;11.714;2024-02-26T08:01:29;2.90;;;2.30;;
67805;SDS011;54603;45.638;11.714;2024-02-26T08:03:55;3.40;;;2.10;;
67805;SDS011;54603;45.638;11.714;2024-02-26T08:06:22;3.80;;;2.20;;
67805;SDS011;54603;45.638;11.714;2024-02-26T08:08:47;2.50;;;2.20;;
67805;SDS011;54603;45.638;11.714;2024-02-26T08:11:14;4.60;;;2.30;;
67805;SDS011;54603;45.638;11.714;2024-02-26T08:13:41;3.40;;;2.30;;
67805;SDS011;54603;45.638;11.714;2024-02-26T08:16:07;2.90;;;2.10;;
67805;SDS011;54603;45.638;11.714;2024-02-26T08:18:33;4.60;;;2.40;;
67805;SDS011;54603;45.638;11.714;2024-02-26T08:20:59;3.30;;;2.10;;
67805;SDS011;54603;45.638;11.714;2024-02-26T08:23:25;3.10;;;2.30;;
67805;SDS011;54603;45.638;11.714;2024-02-26T08:25:51;3.60;;;2.10;;
67805;SDS011;54603;45.638;11.714;2024-02-26T08:28:17;6.00;;;2.80;;
67805;SDS011;54603;45.638;11.714;2024-02-26T08:30:43;8.30;;;3.30;;
67805;SDS011;54603;45.638;11.714;2024-02-26T08:33:09;9.20;;;2.50;;
67805;SDS011;54603;45.638;11.714;2024-02-26T08:35:36;15.10;;;3.60;;
67805;SDS011;54603;45.638;11.714;2024-02-26T08:38:02;9.30;;;2.70;;
67805;SDS011;54603;45.638;11.714;2024-02-26T08:40:30;13.30;;;3.10;;
67805;SDS011;54603;45.638;11.714;2024-02-26T08:42:58;10.10;;;2.90;;
67805;SDS011;54603;45.638;11.714;2024-02-26T08:45:24;12.70;;;2.80;;
67805;SDS011;54603;45.638;11.714;2024-02-26T08:47:54;9.90;;;3.10;;
67805;SDS011;54603;45.638;11.714;2024-02-26T08:50:22;19.00;;;3.30;;
67805;SDS011;54603;45.638;11.714;2024-02-26T08:52:48;15.50;;;3.40;;
67805;SDS011;54603;45.638;11.714;2024-02-26T08:55:16;13.40;;;2.70;;
67805;SDS011;54603;45.638;11.714;2024-02-26T08:57:42;11.10;;;3.40;;
67805;SDS011;54603;45.638;11.714;2024-02-26T09:00:10;9.10;;;3.00;;
67805;SDS011;54603;45.638;11.714;2024-02-26T09:02:38;16.40;;;3.30;;
67805;SDS011;54603;45.638;11.714;2024-02-26T09:05:10;12.50;;;3.20;;
67805;SDS011;54603;45.638;11.714;2024-02-26T09:07:43;16.80;;;3.20;;
67805;SDS011;54603;45.638;11.714;2024-02-26T09:10:10;8.60;;;2.80;;
67805;SDS011;54603;45.638;11.714;2024-02-26T09:12:37;7.90;;;2.70;;
67805;SDS011;54603;45.638;11.714;2024-02-26T09:15:03;13.20;;;2.90;;
67805;SDS011;54603;45.638;11.714;2024-02-26T09:17:29;10.70;;;2.90;;
67805;SDS011;54603;45.638;11.714;2024-02-26T09:19:55;7.20;;;2.50;;
67805;SDS011;54603;45.638;11.714;2024-02-26T09:22:21;9.20;;;3.40;;
67805;SDS011;54603;45.638;11.714;2024-02-26T09:24:47;6.50;;;3.00;;
67805;SDS011;54603;45.638;11.714;2024-02-26T09:27:13;8.20;;;2.60;;
67805;SDS011;54603;45.638;11.714;2024-02-26T09:29:38;9.90;;;3.10;;
67805;SDS011;54603;45.638;11.714;2024-02-26T09:32:04;9.10;;;4.00;;
67805;SDS011;54603;45.638;11.714;2024-02-26T09:34:30;12.00;;;4.30;;
67805;SDS011;54603;45.638;11.714;2024-02-26T09:36:56;9.10;;;3.70;;
67805;SDS011;54603;45.638;11.714;2024-02-26T09:39:22;12.60;;;4.10;;
67805;SDS011;54603;45.638;11.714;2024-02-26T09:41:52;12.30;;;4.40;;
67805;SDS011;54603;45.638;11.714;2024-02-26T09:44:34;11.50;;;4.60;;
67805;SDS011;54603;45.638;11.714;2024-02-26T09:49:35;12.30;;;4.00;;
67805;SDS011;54603;45.638;11.714;2024-02-26T09:52:05;10.80;;;3.90;;
67805;SDS011;54603;45.638;11.714;2024-02-26T09:54:35;12.00;;;4.40;;
67805;SDS011;54603;45.638;11.714;2024-02-26T09:57:03;10.50;;;3.60;;
67805;SDS011;54603;45.638;11.714;2024-02-26T09:59:41;8.30;;;4.10;;
67805;SDS011;54603;45.638;11.714;2024-02-26T10:02:12;14.80;;;4.30;;
67805;SDS011;54603;45.638;11.714;2024-02-26T10:04:40;9.10;;;5.10;;
67805;SDS011;54603;45.638;11.714;2024-02-26T10:07:12;13.40;;;4.20;;
67805;SDS011;54603;45.638;11.714;2024-02-26T10:09:39;11.90;;;3.70;;
67805;SDS011;54603;45.638;11.714;2024-02-26T10:12:07;13.80;;;3.70;;
67805;SDS011;54603;45.638;11.714;2024-02-26T10:14:34;8.80;;;3.80;;
67805;SDS011;54603;45.638;11.714;2024-02-26T10:17:01;9.70;;;3.30;;
67805;SDS011;54603;45.638;11.714;2024-02-26T10:19:28;7.10;;;3.50;;
67805;SDS011;54603;45.638;11.714;2024-02-26T10:22:00;10.20;;;4.90;;
67805;SDS011;54603;45.638;11.714;2024-02-26T10:24:28;6.30;;;3.30;;
67805;SDS011;54603;45.638;11.714;2024-02-26T10:26:55;10.20;;;4.10;;
67805;SDS011;54603;45.638;11.714;2024-02-26T10:29:24;9.10;;;5.00;;
67805;SDS011;54603;45.638;11.714;2024-02-26T10:31:51;11.10;;;5.70;;
67805;SDS011;54603;45.638;11.714;2024-02-26T10:34:18;11.70;;;5.60;;
67805;SDS011;54603;45.638;11.714;2024-02-26T10:36:44;22.10;;;6.30;;
67805;SDS011;54603;45.638;11.714;2024-02-26T10:39:13;14.30;;;7.40;;
67805;SDS011;54603;45.638;11.714;2024-02-26T10:41:40;13.80;;;6.90;;
67805;SDS011;54603;45.638;11.714;2024-02-26T10:44:10;13.50;;;7.10;;
67805;SDS011;54603;45.638;11.714;2024-02-26T10:46:42;7.80;;;5.50;;
67805;SDS011;54603;45.638;11.714;2024-02-26T10:49:15;13.00;;;5.70;;
67805;SDS011;54603;45.638;11.714;2024-02-26T10:51:45;12.40;;;5.40;;
67805;SDS011;54603;45.638;11.714;2024-02-26T10:54:19;9.10;;;5.10;;
67805;SDS011;54603;45.638;11.714;2024-02-26T10:56:46;8.20;;;4.70;;
67805;SDS011;54603;45.638;11.714;2024-02-26T10:59:12;13.70;;;5.60;;
67805;SDS011;54603;45.638;11.714;2024-02-26T11:01:40;9.20;;;5.20;;
67805;SDS011;54603;45.638;11.714;2024-02-26T11:04:08;14.10;;;6.30;;
67805;SDS011;54603;45.638;11.714;2024-02-26T11:06:34;10.60;;;6.00;;
67805;SDS011;54603;45.638;11.714;2024-02-26T11:09:02;9.10;;;6.20;;
67805;SDS011;54603;45.638;11.714;2024-02-26T11:11:32;11.20;;;7.00;;
67805;SDS011;54603;45.638;11.714;2024-02-26T11:14:01;13.50;;;9.10;;
67805;SDS011;54603;45.638;11.714;2024-02-26T11:16:27;12.60;;;8.30;;
67805;SDS011;54603;45.638;11.714;2024-02-26T11:18:55;14.90;;;9.00;;
67805;SDS011;54603;45.638;11.714;2024-02-26T11:21:21;17.00;;;9.80;;
67805;SDS011;54603;45.638;11.714;2024-02-26T11:24:10;19.20;;;9.80;;
67805;SDS011;54603;45.638;11.714;2024-02-26T11:26:59;12.50;;;8.60;;
67805;SDS011;54603;45.638;11.714;2024-02-26T11:29:33;14.50;;;7.70;;
67805;SDS011;54603;45.638;11.714;2024-02-26T11:32:03;14.60;;;8.00;;
67805;SDS011;54603;45.638;11.714;2024-02-26T11:34:29;22.90;;;9.00;;
67805;SDS011;54603;45.638;11.714;2024-02-26T11:36:56;13.60;;;7.10;;
67805;SDS011;54603;45.638;11.714;2024-02-26T11:39:22;12.30;;;6.60;;
67805;SDS011;54603;45.638;11.714;2024-02-26T11:41:50;13.10;;;7.40;;
67805;SDS011;54603;45.638;11.714;2024-02-26T11:44:28;24.80;;;9.90;;
67805;SDS011;54603;45.638;11.714;2024-02-26T11:46:56;22.70;;;9.90;;
67805;SDS011;54603;45.638;11.714;2024-02-26T11:51:55;26.00;;;9.70;;
67805;SDS011;54603;45.638;11.714;2024-02-26T11:57:30;19.80;;;9.30;;
67805;SDS011;54603;45.638;11.714;2024-02-26T12:02:44;19.50;;;8.50;;
67805;SDS011;54603;45.638;11.714;2024-02-26T12:07:49;18.20;;;8.60;;
67805;SDS011;54603;45.638;11.714;2024-02-26T12:12:58;24.70;;;9.10;;
67805;SDS011;54603;45.638;11.714;2024-02-26T12:15:30;23.80;;;9.20;;
67805;SDS011;54603;45.638;11.714;2024-02-26T12:18:01;23.60;;;8.20;;
67805;SDS011;54603;45.638;11.714;2024-02-26T12:20:28;21.20;;;8.10;;
67805;SDS011;54603;45.638;11.714;2024-02-26T12:22:54;18.80;;;8.20;;
67805;SDS011;54603;45.638;11.714;2024-02-26T12:25:26;20.40;;;8.60;;
67805;SDS011;54603;45.638;11.714;2024-02-26T12:27:54;15.50;;;7.70;;
67805;SDS011;54603;45.638;11.714;2024-02-26T12:30:20;21.80;;;7.60;;
67805;SDS011;54603;45.638;11.714;2024-02-26T12:32:51;18.30;;;7.90;;
67805;SDS011;54603;45.638;11.714;2024-02-26T12:35:18;17.30;;;7.20;;
67805;SDS011;54603;45.638;11.714;2024-02-26T12:37:44;15.40;;;7.20;;
67805;SDS011;54603;45.638;11.714;2024-02-26T12:40:11;16.10;;;7.20;;
67805;SDS011;54603;45.638;11.714;2024-02-26T12:42:38;14.00;;;6.90;;
67805;SDS011;54603;45.638;11.714;2024-02-26T12:45:07;14.80;;;6.90;;
67805;SDS011;54603;45.638;11.714;2024-02-26T12:47:36;14.70;;;6.90;;
67805;SDS011;54603;45.638;11.714;2024-02-26T12:50:03;16.50;;;7.10;;
67805;SDS011;54603;45.638;11.714;2024-02-26T12:52:34;14.10;;;6.60;;
67805;SDS011;54603;45.638;11.714;2024-02-26T12:55:03;13.10;;;6.50;;
67805;SDS011;54603;45.638;11.714;2024-02-26T12:57:32;13.00;;;6.90;;
67805;SDS011;54603;45.638;11.714;2024-02-26T13:02:27;11.40;;;5.50;;
67805;SDS011;54603;45.638;11.714;2024-02-26T13:04:54;16.10;;;6.00;;
67805;SDS011;54603;45.638;11.714;2024-02-26T13:07:21;15.70;;;5.90;;
67805;SDS011;54603;45.638;11.714;2024-02-26T13:09:47;9.90;;;5.80;;
67805;SDS011;54603;45.638;11.714;2024-02-26T13:12:13;11.00;;;5.70;;
67805;SDS011;54603;45.638;11.714;2024-02-26T13:14:40;8.20;;;5.40;;
67805;SDS011;54603;45.638;11.714;2024-02-26T13:17:06;15.40;;;5.80;;
67805;SDS011;54603;45.638;11.714;2024-02-26T13:19:32;11.70;;;5.90;;
67805;SDS011;54603;45.638;11.714;2024-02-26T13:22:06;12.50;;;6.00;;
67805;SDS011;54603;45.638;11.714;2024-02-26T13:24:35;12.60;;;5.50;;
67805;SDS011;54603;45.638;11.714;2024-02-26T13:27:04;12.70;;;6.50;;
67805;SDS011;54603;45.638;11.714;2024-02-26T13:29:31;11.80;;;6.10;;
67805;SDS011;54603;45.638;11.714;2024-02-26T13:31:57;11.90;;;5.50;;
67805;SDS011;54603;45.638;11.714;2024-02-26T13:34:25;11.00;;;5.60;;
67805;SDS011;54603;45.638;11.714;2024-02-26T13:36:56;14.40;;;5.50;;
67805;SDS011;54603;45.638;11.714;2024-02-26T13:39:26;12.00;;;5.90;;
67805;SDS011;54603;45.638;11.714;2024-02-26T13:41:53;14.90;;;5.20;;
67805;SDS011;54603;45.638;11.714;2024-02-26T13:44:20;9.40;;;5.30;;
67805;SDS011;54603;45.638;11.714;2024-02-26T13:46:47;14.80;;;5.80;;
67805;SDS011;54603;45.638;11.714;2024-02-26T13:49:14;10.90;;;5.30;;
67805;SDS011;54603;45.638;11.714;2024-02-26T13:51:40;9.80;;;5.40;;
67805;SDS011;54603;45.638;11.714;2024-02-26T13:54:06;12.60;;;6.10;;
67805;SDS011;54603;45.638;11.714;2024-02-26T13:56:33;11.60;;;5.10;;
67805;SDS011;54603;45.638;11.714;2024-02-26T13:58:59;10.10;;;5.50;;
67805;SDS011;54603;45.638;11.714;2024-02-26T14:01:25;9.30;;;5.50;;
67805;SDS011;54603;45.638;11.714;2024-02-26T14:03:51;9.20;;;5.60;;
67805;SDS011;54603;45.638;11.714;2024-02-26T14:06:20;8.90;;;5.60;;
67805;SDS011;54603;45.638;11.714;2024-02-26T14:08:46;8.40;;;5.70;;
67805;SDS011;54603;45.638;11.714;2024-02-26T14:11:12;11.60;;;5.50;;
67805;SDS011;54603;45.638;11.714;2024-02-26T14:13:37;8.60;;;4.30;;
67805;SDS011;54603;45.638;11.714;2024-02-26T14:16:03;8.80;;;4.50;;
67805;SDS011;54603;45.638;11.714;2024-02-26T14:18:32;9.10;;;5.00;;
67805;SDS011;54603;45.638;11.714;2024-02-26T14:20:57;8.70;;;4.60;;
67805;SDS011;54603;45.638;11.714;2024-02-26T14:23:23;8.40;;;4.60;;
67805;SDS011;54603;45.638;11.714;2024-02-26T14:25:49;8.90;;;4.40;;
67805;SDS011;54603;45.638;11.714;2024-02-26T14:28:14;11.20;;;4.80;;
67805;SDS011;54603;45.638;11.714;2024-02-26T14:30:40;7.80;;;4.20;;
67805;SDS011;54603;45.638;11.714;2024-02-26T14:33:06;9.50;;;4.60;;
67805;SDS011;54603;45.638;11.714;2024-02-26T14:35:32;8.10;;;4.80;;
67805;SDS011;54603;45.638;11.714;2024-02-26T14:37:57;8.70;;;5.30;;
67805;SDS011;54603;45.638;11.714;2024-02-26T14:40:27;7.90;;;4.90;;
67805;SDS011;54603;45.638;11.714;2024-02-26T14:42:52;8.20;;;4.70;;
67805;SDS011;54603;45.638;11.714;2024-02-26T14:45:18;7.30;;;4.50;;
67805;SDS011;54603;45.638;11.714;2024-02-26T14:47:44;5.90;;;4.20;;